sensor_id;sensor_type;location;lat;lon;timestamp;P1;durP1;ratioP1;P2;durP2;ratioP2
3407;SDS011;1717;50.240;8.406;2023-08-24T00:01:27;4.53;;;2.87;;
3407;SDS011;1717;50.240;8.406;2023-08-24T00:03:54;3.13;;;2.70;;
3407;SDS011;1717;50.240;8.406;2023-08-24T00:06:21;3.17;;;2.57;;
3407;SDS011;1717;50.240;8.406;2023-08-24T00:08:49;3.77;;;3.10;;
3407;SDS011;1717;50.240;8.406;2023-08-24T00:11:16;4.50;;;2.67;;
3407;SDS011;1717;50.240;8.406;2023-08-24T00:13:43;3.57;;;2.43;;
3407;SDS011;1717;50.240;8.406;2023-08-24T00:16:14;3.97;;;2.40;;
3407;SDS011;1717;50.240;8.406;2023-08-24T00:18:40;3.40;;;2.40;;
3407;SDS011;1717;50.240;8.406;2023-08-24T00:21:07;4.20;;;3.03;;
3407;SDS011;1717;50.240;8.406;2023-08-24T00:23:34;2.60;;;2.33;;
3407;SDS011;1717;50.240;8.406;2023-08-24T00:26:02;2.50;;;2.30;;
3407;SDS011;1717;50.240;8.406;2023-08-24T00:28:29;4.97;;;2.90;;
3407;SDS011;1717;50.240;8.406;2023-08-24T00:30:56;8.17;;;3.17;;
3407;SDS011;1717;50.240;8.406;2023-08-24T00:33:23;5.57;;;3.27;;
3407;SDS011;1717;50.240;8.406;2023-08-24T00:35:50;2.70;;;2.50;;
3407;SDS011;1717;50.240;8.406;2023-08-24T00:38:17;7.60;;;3.13;;
3407;SDS011;1717;50.240;8.406;2023-08-24T00:40:43;4.50;;;2.60;;
3407;SDS011;1717;50.240;8.406;2023-08-24T00:43:12;2.80;;;2.60;;
3407;SDS011;1717;50.240;8.406;2023-08-24T00:45:39;2.77;;;2.57;;
3407;SDS011;1717;50.240;8.406;2023-08-24T00:48:06;2.70;;;2.50;;
3407;SDS011;1717;50.240;8.406;2023-08-24T00:50:34;2.60;;;2.40;;
3407;SDS011;1717;50.240;8.406;2023-08-24T00:53:01;5.00;;;3.40;;
3407;SDS011;1717;50.240;8.406;2023-08-24T00:55:28;2.40;;;2.20;;
3407;SDS011;1717;50.240;8.406;2023-08-24T00:57:55;3.10;;;2.80;;
3407;SDS011;1717;50.240;8.406;2023-08-24T01:00:24;2.53;;;2.17;;
3407;SDS011;1717;50.240;8.406;2023-08-24T01:02:51;4.50;;;2.80;;
3407;SDS011;1717;50.240;8.406;2023-08-24T01:05:18;3.70;;;2.97;;
3407;SDS011;1717;50.240;8.406;2023-08-24T01:07:45;2.67;;;2.47;;
3407;SDS011;1717;50.240;8.406;2023-08-24T01:10:12;4.83;;;2.53;;
3407;SDS011;1717;50.240;8.406;2023-08-24T01:12:42;3.50;;;3.07;;
3407;SDS011;1717;50.240;8.406;2023-08-24T01:15:23;3.73;;;2.50;;
3407;SDS011;1717;50.240;8.406;2023-08-24T01:17:59;3.70;;;2.30;;
3407;SDS011;1717;50.240;8.406;2023-08-24T01:20:30;2.93;;;2.73;;
3407;SDS011;1717;50.240;8.406;2023-08-24T01:23:02;4.53;;;3.00;;
3407;SDS011;1717;50.240;8.406;2023-08-24T01:25:40;3.43;;;3.13;;
3407;SDS011;1717;50.240;8.406;2023-08-24T01:28:14;3.60;;;3.03;;
3407;SDS011;1717;50.240;8.406;2023-08-24T01:30:42;4.10;;;3.47;;
3407;SDS011;1717;50.240;8.406;2023-08-24T01:33:10;5.23;;;3.40;;
3407;SDS011;1717;50.240;8.406;2023-08-24T01:35:38;4.87;;;3.47;;
3407;SDS011;1717;50.240;8.406;2023-08-24T01:38:05;4.60;;;2.93;;
3407;SDS011;1717;50.240;8.406;2023-08-24T01:40:34;4.70;;;2.90;;
3407;SDS011;1717;50.240;8.406;2023-08-24T01:43:10;3.30;;;2.80;;
3407;SDS011;1717;50.240;8.406;2023-08-24T01:45:41;3.90;;;3.00;;
3407;SDS011;1717;50.240;8.406;2023-08-24T01:48:10;4.03;;;2.83;;
3407;SDS011;1717;50.240;8.406;2023-08-24T01:50:38;2.93;;;2.70;;
3407;SDS011;1717;50.240;8.406;2023-08-24T01:53:05;3.70;;;3.07;;
3407;SDS011;1717;50.240;8.406;2023-08-24T01:55:32;8.73;;;3.27;;
3407;SDS011;1717;50.240;8.406;2023-08-24T01:57:59;3.73;;;3.27;;
3407;SDS011;1717;50.240;8.406;2023-08-24T02:00:26;11.83;;;3.00;;
3407;SDS011;1717;50.240;8.406;2023-08-24T02:02:55;6.20;;;2.60;;
3407;SDS011;1717;50.240;8.406;2023-08-24T02:05:22;2.67;;;2.47;;
3407;SDS011;1717;50.240;8.406;2023-08-24T02:07:52;3.10;;;2.57;;
3407;SDS011;1717;50.240;8.406;2023-08-24T02:10:19;3.73;;;2.60;;
3407;SDS011;1717;50.240;8.406;2023-08-24T02:12:46;4.50;;;2.60;;
3407;SDS011;1717;50.240;8.406;2023-08-24T02:15:13;4.33;;;3.00;;
3407;SDS011;1717;50.240;8.406;2023-08-24T02:17:40;4.30;;;3.30;;
3407;SDS011;1717;50.240;8.406;2023-08-24T02:20:10;3.43;;;2.60;;
3407;SDS011;1717;50.240;8.406;2023-08-24T02:22:37;2.57;;;2.37;;
3407;SDS011;1717;50.240;8.406;2023-08-24T02:25:04;4.83;;;3.07;;
3407;SDS011;1717;50.240;8.406;2023-08-24T02:27:32;2.87;;;2.57;;
3407;SDS011;1717;50.240;8.406;2023-08-24T02:29:59;2.77;;;2.40;;
3407;SDS011;1717;50.240;8.406;2023-08-24T02:32:26;9.27;;;3.80;;
3407;SDS011;1717;50.240;8.406;2023-08-24T02:34:53;4.33;;;2.73;;
3407;SDS011;1717;50.240;8.406;2023-08-24T02:37:21;6.60;;;2.93;;
3407;SDS011;1717;50.240;8.406;2023-08-24T02:39:48;3.20;;;2.90;;
3407;SDS011;1717;50.240;8.406;2023-08-24T02:42:15;2.43;;;2.20;;
3407;SDS011;1717;50.240;8.406;2023-08-24T02:44:42;5.07;;;3.00;;
3407;SDS011;1717;50.240;8.406;2023-08-24T02:47:08;3.80;;;2.90;;
3407;SDS011;1717;50.240;8.406;2023-08-24T02:49:35;3.03;;;2.70;;
3407;SDS011;1717;50.240;8.406;2023-08-24T02:52:02;3.53;;;2.50;;
3407;SDS011;1717;50.240;8.406;2023-08-24T02:54:31;4.00;;;2.70;;
3407;SDS011;1717;50.240;8.406;2023-08-24T02:56:58;4.47;;;3.40;;
3407;SDS011;1717;50.240;8.406;2023-08-24T02:59:24;3.13;;;2.83;;
3407;SDS011;1717;50.240;8.406;2023-08-24T03:01:52;4.00;;;2.87;;
3407;SDS011;1717;50.240;8.406;2023-08-24T03:04:18;4.00;;;2.70;;
3407;SDS011;1717;50.240;8.406;2023-08-24T03:06:46;2.33;;;2.10;;
3407;SDS011;1717;50.240;8.406;2023-08-24T03:09:13;2.53;;;2.33;;
3407;SDS011;1717;50.240;8.406;2023-08-24T03:11:41;5.20;;;3.50;;
3407;SDS011;1717;50.240;8.406;2023-08-24T03:14:08;3.20;;;2.53;;
3407;SDS011;1717;50.240;8.406;2023-08-24T03:16:36;5.63;;;2.60;;
3407;SDS011;1717;50.240;8.406;2023-08-24T03:19:03;2.83;;;2.63;;
3407;SDS011;1717;50.240;8.406;2023-08-24T03:21:30;2.97;;;2.37;;
3407;SDS011;1717;50.240;8.406;2023-08-24T03:23:57;5.53;;;2.70;;
3407;SDS011;1717;50.240;8.406;2023-08-24T03:26:24;3.30;;;3.00;;
3407;SDS011;1717;50.240;8.406;2023-08-24T03:28:52;6.23;;;3.57;;
3407;SDS011;1717;50.240;8.406;2023-08-24T03:31:19;3.83;;;2.87;;
3407;SDS011;1717;50.240;8.406;2023-08-24T03:33:46;2.70;;;2.50;;
3407;SDS011;1717;50.240;8.406;2023-08-24T03:36:13;6.80;;;3.53;;
3407;SDS011;1717;50.240;8.406;2023-08-24T03:38:39;3.67;;;2.67;;
3407;SDS011;1717;50.240;8.406;2023-08-24T03:41:06;3.97;;;3.20;;
3407;SDS011;1717;50.240;8.406;2023-08-24T03:43:34;2.90;;;2.67;;
3407;SDS011;1717;50.240;8.406;2023-08-24T03:46:03;5.00;;;2.80;;
3407;SDS011;1717;50.240;8.406;2023-08-24T03:48:31;5.03;;;3.30;;
3407;SDS011;1717;50.240;8.406;2023-08-24T03:50:58;3.67;;;2.20;;
3407;SDS011;1717;50.240;8.406;2023-08-24T03:53:25;4.53;;;3.30;;
3407;SDS011;1717;50.240;8.406;2023-08-24T03:55:52;2.93;;;2.50;;
3407;SDS011;1717;50.240;8.406;2023-08-24T03:58:20;6.47;;;2.97;;
3407;SDS011;1717;50.240;8.406;2023-08-24T04:00:47;4.77;;;3.50;;
3407;SDS011;1717;50.240;8.406;2023-08-24T04:03:15;3.00;;;2.70;;
3407;SDS011;1717;50.240;8.406;2023-08-24T04:05:42;4.13;;;3.23;;
3407;SDS011;1717;50.240;8.406;2023-08-24T04:08:08;4.57;;;3.00;;
3407;SDS011;1717;50.240;8.406;2023-08-24T04:10:35;4.07;;;3.47;;
3407;SDS011;1717;50.240;8.406;2023-08-24T04:13:03;3.50;;;3.00;;
3407;SDS011;1717;50.240;8.406;2023-08-24T04:15:30;3.97;;;3.03;;
3407;SDS011;1717;50.240;8.406;2023-08-24T04:17:57;7.23;;;2.50;;
3407;SDS011;1717;50.240;8.406;2023-08-24T04:20:25;3.43;;;2.90;;
3407;SDS011;1717;50.240;8.406;2023-08-24T04:22:52;5.50;;;2.70;;
3407;SDS011;1717;50.240;8.406;2023-08-24T04:25:20;3.67;;;2.97;;
3407;SDS011;1717;50.240;8.406;2023-08-24T04:27:47;3.10;;;2.80;;
3407;SDS011;1717;50.240;8.406;2023-08-24T04:30:14;7.73;;;3.50;;
3407;SDS011;1717;50.240;8.406;2023-08-24T04:32:41;4.83;;;2.90;;
3407;SDS011;1717;50.240;8.406;2023-08-24T04:35:08;6.07;;;3.10;;
3407;SDS011;1717;50.240;8.406;2023-08-24T04:37:36;3.60;;;2.80;;
3407;SDS011;1717;50.240;8.406;2023-08-24T04:40:04;5.40;;;3.40;;
3407;SDS011;1717;50.240;8.406;2023-08-24T04:42:32;3.67;;;2.70;;
3407;SDS011;1717;50.240;8.406;2023-08-24T04:44:59;4.80;;;3.13;;
3407;SDS011;1717;50.240;8.406;2023-08-24T04:47:26;3.60;;;2.67;;
3407;SDS011;1717;50.240;8.406;2023-08-24T04:49:53;4.23;;;3.33;;
3407;SDS011;1717;50.240;8.406;2023-08-24T04:52:19;4.33;;;3.23;;
3407;SDS011;1717;50.240;8.406;2023-08-24T04:54:48;4.97;;;3.37;;
3407;SDS011;1717;50.240;8.406;2023-08-24T04:57:15;3.57;;;3.27;;
3407;SDS011;1717;50.240;8.406;2023-08-24T04:59:43;5.40;;;3.60;;
3407;SDS011;1717;50.240;8.406;2023-08-24T05:02:10;8.30;;;3.10;;
3407;SDS011;1717;50.240;8.406;2023-08-24T05:04:37;4.63;;;3.33;;
3407;SDS011;1717;50.240;8.406;2023-08-24T05:07:04;4.00;;;3.37;;
3407;SDS011;1717;50.240;8.406;2023-08-24T05:09:30;3.73;;;3.43;;
3407;SDS011;1717;50.240;8.406;2023-08-24T05:11:59;4.47;;;3.93;;
3407;SDS011;1717;50.240;8.406;2023-08-24T05:14:25;3.93;;;3.53;;
3407;SDS011;1717;50.240;8.406;2023-08-24T05:16:52;3.57;;;3.23;;
3407;SDS011;1717;50.240;8.406;2023-08-24T05:19:19;4.07;;;3.67;;
3407;SDS011;1717;50.240;8.406;2023-08-24T05:21:46;3.87;;;3.57;;
3407;SDS011;1717;50.240;8.406;2023-08-24T05:24:13;3.43;;;3.13;;
3407;SDS011;1717;50.240;8.406;2023-08-24T05:26:39;3.67;;;3.37;;
3407;SDS011;1717;50.240;8.406;2023-08-24T05:29:08;3.70;;;3.40;;
3407;SDS011;1717;50.240;8.406;2023-08-24T05:31:34;3.53;;;3.23;;
3407;SDS011;1717;50.240;8.406;2023-08-24T05:34:01;3.20;;;2.90;;
3407;SDS011;1717;50.240;8.406;2023-08-24T05:36:28;3.97;;;3.37;;
3407;SDS011;1717;50.240;8.406;2023-08-24T05:38:55;4.33;;;3.57;;
3407;SDS011;1717;50.240;8.406;2023-08-24T05:41:22;3.60;;;3.30;;
3407;SDS011;1717;50.240;8.406;2023-08-24T05:43:48;5.17;;;3.67;;
3407;SDS011;1717;50.240;8.406;2023-08-24T05:46:19;3.83;;;3.23;;
3407;SDS011;1717;50.240;8.406;2023-08-24T05:48:46;3.53;;;3.23;;
3407;SDS011;1717;50.240;8.406;2023-08-24T05:51:12;5.47;;;3.60;;
3407;SDS011;1717;50.240;8.406;2023-08-24T05:53:40;3.73;;;3.43;;
3407;SDS011;1717;50.240;8.406;2023-08-24T05:56:07;3.93;;;2.70;;
3407;SDS011;1717;50.240;8.406;2023-08-24T05:58:33;3.03;;;2.83;;
3407;SDS011;1717;50.240;8.406;2023-08-24T06:01:00;3.50;;;3.17;;
3407;SDS011;1717;50.240;8.406;2023-08-24T06:03:28;3.13;;;2.93;;
3407;SDS011;1717;50.240;8.406;2023-08-24T06:06:00;5.80;;;3.83;;
3407;SDS011;1717;50.240;8.406;2023-08-24T06:08:28;5.00;;;2.97;;
3407;SDS011;1717;50.240;8.406;2023-08-24T06:10:55;3.57;;;3.17;;
3407;SDS011;1717;50.240;8.406;2023-08-24T06:13:22;3.27;;;3.00;;
3407;SDS011;1717;50.240;8.406;2023-08-24T06:15:49;3.63;;;3.33;;
3407;SDS011;1717;50.240;8.406;2023-08-24T06:18:16;4.17;;;3.23;;
3407;SDS011;1717;50.240;8.406;2023-08-24T06:20:44;4.83;;;3.80;;
3407;SDS011;1717;50.240;8.406;2023-08-24T06:23:14;4.10;;;3.50;;
3407;SDS011;1717;50.240;8.406;2023-08-24T06:25:43;3.90;;;3.50;;
3407;SDS011;1717;50.240;8.406;2023-08-24T06:28:10;3.63;;;3.27;;
3407;SDS011;1717;50.240;8.406;2023-08-24T06:30:37;7.57;;;4.00;;
3407;SDS011;1717;50.240;8.406;2023-08-24T06:33:04;3.90;;;3.50;;
3407;SDS011;1717;50.240;8.406;2023-08-24T06:35:32;4.67;;;4.37;;
3407;SDS011;1717;50.240;8.406;2023-08-24T06:38:00;4.10;;;3.70;;
3407;SDS011;1717;50.240;8.406;2023-08-24T06:40:27;4.63;;;3.60;;
3407;SDS011;1717;50.240;8.406;2023-08-24T06:42:55;4.10;;;3.80;;
3407;SDS011;1717;50.240;8.406;2023-08-24T06:45:21;4.70;;;4.30;;
3407;SDS011;1717;50.240;8.406;2023-08-24T06:47:49;5.23;;;3.93;;
3407;SDS011;1717;50.240;8.406;2023-08-24T06:50:16;4.30;;;4.00;;
3407;SDS011;1717;50.240;8.406;2023-08-24T06:52:44;5.63;;;3.80;;
3407;SDS011;1717;50.240;8.406;2023-08-24T06:55:12;4.60;;;4.03;;
3407;SDS011;1717;50.240;8.406;2023-08-24T06:57:39;4.00;;;3.70;;
3407;SDS011;1717;50.240;8.406;2023-08-24T07:00:07;4.33;;;3.93;;
3407;SDS011;1717;50.240;8.406;2023-08-24T07:02:34;4.60;;;4.00;;
3407;SDS011;1717;50.240;8.406;2023-08-24T07:05:02;4.07;;;3.77;;
3407;SDS011;1717;50.240;8.406;2023-08-24T07:07:31;8.57;;;4.47;;
3407;SDS011;1717;50.240;8.406;2023-08-24T07:09:58;5.00;;;4.57;;
3407;SDS011;1717;50.240;8.406;2023-08-24T07:12:26;3.70;;;3.40;;
3407;SDS011;1717;50.240;8.406;2023-08-24T07:14:53;6.27;;;4.53;;
3407;SDS011;1717;50.240;8.406;2023-08-24T07:17:19;4.00;;;3.60;;
3407;SDS011;1717;50.240;8.406;2023-08-24T07:19:46;4.20;;;3.90;;
3407;SDS011;1717;50.240;8.406;2023-08-24T07:22:13;5.07;;;4.57;;
3407;SDS011;1717;50.240;8.406;2023-08-24T07:24:40;5.53;;;3.87;;
3407;SDS011;1717;50.240;8.406;2023-08-24T07:27:07;5.60;;;4.20;;
3407;SDS011;1717;50.240;8.406;2023-08-24T07:29:36;5.70;;;4.60;;
3407;SDS011;1717;50.240;8.406;2023-08-24T07:32:03;4.37;;;3.97;;
3407;SDS011;1717;50.240;8.406;2023-08-24T07:34:30;5.47;;;4.30;;
3407;SDS011;1717;50.240;8.406;2023-08-24T07:36:56;5.27;;;4.87;;
3407;SDS011;1717;50.240;8.406;2023-08-24T07:39:23;5.07;;;4.50;;
3407;SDS011;1717;50.240;8.406;2023-08-24T07:41:50;6.00;;;4.20;;
3407;SDS011;1717;50.240;8.406;2023-08-24T07:44:17;6.67;;;4.30;;
3407;SDS011;1717;50.240;8.406;2023-08-24T07:46:46;5.93;;;5.33;;
3407;SDS011;1717;50.240;8.406;2023-08-24T07:49:13;5.40;;;5.00;;
3407;SDS011;1717;50.240;8.406;2023-08-24T07:51:40;7.03;;;4.10;;
3407;SDS011;1717;50.240;8.406;2023-08-24T07:54:07;6.43;;;4.40;;
3407;SDS011;1717;50.240;8.406;2023-08-24T07:56:35;5.00;;;4.20;;
3407;SDS011;1717;50.240;8.406;2023-08-24T07:59:02;5.13;;;4.63;;
3407;SDS011;1717;50.240;8.406;2023-08-24T08:01:29;4.97;;;4.47;;
3407;SDS011;1717;50.240;8.406;2023-08-24T08:03:57;6.00;;;4.50;;
3407;SDS011;1717;50.240;8.406;2023-08-24T08:06:25;5.00;;;4.60;;
3407;SDS011;1717;50.240;8.406;2023-08-24T08:08:52;4.53;;;3.97;;
3407;SDS011;1717;50.240;8.406;2023-08-24T08:11:19;4.60;;;4.13;;
3407;SDS011;1717;50.240;8.406;2023-08-24T08:13:47;3.90;;;3.60;;
3407;SDS011;1717;50.240;8.406;2023-08-24T08:16:14;4.33;;;3.93;;
3407;SDS011;1717;50.240;8.406;2023-08-24T08:18:41;4.33;;;3.70;;
3407;SDS011;1717;50.240;8.406;2023-08-24T08:21:10;4.67;;;3.83;;
3407;SDS011;1717;50.240;8.406;2023-08-24T08:23:42;4.43;;;3.90;;
3407;SDS011;1717;50.240;8.406;2023-08-24T08:26:10;4.50;;;3.80;;
3407;SDS011;1717;50.240;8.406;2023-08-24T08:28:38;3.60;;;3.30;;
3407;SDS011;1717;50.240;8.406;2023-08-24T08:31:05;4.43;;;3.77;;
3407;SDS011;1717;50.240;8.406;2023-08-24T08:33:32;4.60;;;4.20;;
3407;SDS011;1717;50.240;8.406;2023-08-24T08:35:59;5.70;;;4.10;;
3407;SDS011;1717;50.240;8.406;2023-08-24T08:38:28;5.60;;;3.90;;
3407;SDS011;1717;50.240;8.406;2023-08-24T08:40:55;6.70;;;3.80;;
3407;SDS011;1717;50.240;8.406;2023-08-24T08:43:27;5.50;;;4.17;;
3407;SDS011;1717;50.240;8.406;2023-08-24T08:45:55;4.20;;;3.80;;
3407;SDS011;1717;50.240;8.406;2023-08-24T08:48:24;4.40;;;4.10;;
3407;SDS011;1717;50.240;8.406;2023-08-24T08:50:51;3.77;;;3.47;;
3407;SDS011;1717;50.240;8.406;2023-08-24T08:53:21;4.87;;;4.00;;
3407;SDS011;1717;50.240;8.406;2023-08-24T08:55:50;4.43;;;3.67;;
3407;SDS011;1717;50.240;8.406;2023-08-24T08:58:19;4.20;;;3.80;;
3407;SDS011;1717;50.240;8.406;2023-08-24T09:00:47;4.33;;;3.33;;
3407;SDS011;1717;50.240;8.406;2023-08-24T09:03:14;3.90;;;3.60;;
3407;SDS011;1717;50.240;8.406;2023-08-24T09:05:44;4.27;;;3.87;;
3407;SDS011;1717;50.240;8.406;2023-08-24T09:08:13;4.23;;;3.70;;
3407;SDS011;1717;50.240;8.406;2023-08-24T09:10:42;3.67;;;3.37;;
3407;SDS011;1717;50.240;8.406;2023-08-24T09:13:10;3.80;;;3.50;;
3407;SDS011;1717;50.240;8.406;2023-08-24T09:15:37;3.10;;;2.90;;
3407;SDS011;1717;50.240;8.406;2023-08-24T09:18:04;5.20;;;3.93;;
3407;SDS011;1717;50.240;8.406;2023-08-24T09:20:31;3.80;;;3.40;;
3407;SDS011;1717;50.240;8.406;2023-08-24T09:22:59;3.73;;;3.40;;
3407;SDS011;1717;50.240;8.406;2023-08-24T09:25:26;3.67;;;3.30;;
3407;SDS011;1717;50.240;8.406;2023-08-24T09:27:56;3.70;;;3.40;;
3407;SDS011;1717;50.240;8.406;2023-08-24T09:30:29;3.77;;;3.47;;
3407;SDS011;1717;50.240;8.406;2023-08-24T09:33:00;3.57;;;3.27;;
3407;SDS011;1717;50.240;8.406;2023-08-24T09:35:28;3.27;;;3.03;;
3407;SDS011;1717;50.240;8.406;2023-08-24T09:37:55;4.30;;;3.90;;
3407;SDS011;1717;50.240;8.406;2023-08-24T09:40:23;3.57;;;3.07;;
3407;SDS011;1717;50.240;8.406;2023-08-24T09:42:51;4.20;;;3.37;;
3407;SDS011;1717;50.240;8.406;2023-08-24T09:45:18;3.70;;;3.00;;
3407;SDS011;1717;50.240;8.406;2023-08-24T09:47:48;3.13;;;2.90;;
3407;SDS011;1717;50.240;8.406;2023-08-24T09:50:16;3.17;;;2.97;;
3407;SDS011;1717;50.240;8.406;2023-08-24T09:52:43;3.80;;;3.20;;
3407;SDS011;1717;50.240;8.406;2023-08-24T09:55:13;3.70;;;2.90;;
3407;SDS011;1717;50.240;8.406;2023-08-24T09:57:46;2.90;;;2.70;;
3407;SDS011;1717;50.240;8.406;2023-08-24T10:00:14;3.27;;;2.97;;
3407;SDS011;1717;50.240;8.406;2023-08-24T10:02:49;3.43;;;3.13;;
3407;SDS011;1717;50.240;8.406;2023-08-24T10:05:19;3.37;;;3.07;;
3407;SDS011;1717;50.240;8.406;2023-08-24T10:07:47;3.63;;;3.33;;
3407;SDS011;1717;50.240;8.406;2023-08-24T10:10:17;3.03;;;2.67;;
3407;SDS011;1717;50.240;8.406;2023-08-24T10:12:47;5.20;;;3.10;;
3407;SDS011;1717;50.240;8.406;2023-08-24T10:15:17;3.67;;;3.30;;
3407;SDS011;1717;50.240;8.406;2023-08-24T10:17:48;4.70;;;3.00;;
3407;SDS011;1717;50.240;8.406;2023-08-24T10:20:17;3.37;;;3.07;;
3407;SDS011;1717;50.240;8.406;2023-08-24T10:22:46;3.37;;;3.07;;
3407;SDS011;1717;50.240;8.406;2023-08-24T10:25:14;4.20;;;3.80;;
3407;SDS011;1717;50.240;8.406;2023-08-24T10:27:43;3.37;;;3.07;;
3407;SDS011;1717;50.240;8.406;2023-08-24T10:30:13;5.10;;;3.10;;
3407;SDS011;1717;50.240;8.406;2023-08-24T10:32:41;3.50;;;3.10;;
3407;SDS011;1717;50.240;8.406;2023-08-24T10:35:10;3.13;;;2.83;;
3407;SDS011;1717;50.240;8.406;2023-08-24T10:37:40;3.60;;;3.30;;
3407;SDS011;1717;50.240;8.406;2023-08-24T10:40:10;3.33;;;2.93;;
3407;SDS011;1717;50.240;8.406;2023-08-24T10:42:44;3.60;;;3.10;;
3407;SDS011;1717;50.240;8.406;2023-08-24T10:45:13;3.67;;;3.37;;
3407;SDS011;1717;50.240;8.406;2023-08-24T10:47:44;4.03;;;2.77;;
3407;SDS011;1717;50.240;8.406;2023-08-24T10:50:13;3.90;;;3.23;;
3407;SDS011;1717;50.240;8.406;2023-08-24T10:52:42;5.30;;;3.20;;
3407;SDS011;1717;50.240;8.406;2023-08-24T10:55:26;3.83;;;3.47;;
3407;SDS011;1717;50.240;8.406;2023-08-24T10:57:56;5.20;;;3.67;;
3407;SDS011;1717;50.240;8.406;2023-08-24T11:00:25;3.00;;;2.73;;
3407;SDS011;1717;50.240;8.406;2023-08-24T11:02:53;3.03;;;2.80;;
3407;SDS011;1717;50.240;8.406;2023-08-24T11:05:22;3.67;;;3.20;;
3407;SDS011;1717;50.240;8.406;2023-08-24T11:07:53;5.83;;;3.50;;
3407;SDS011;1717;50.240;8.406;2023-08-24T11:10:21;5.93;;;3.30;;
3407;SDS011;1717;50.240;8.406;2023-08-24T11:13:05;3.47;;;2.97;;
3407;SDS011;1717;50.240;8.406;2023-08-24T11:15:42;3.20;;;2.90;;
3407;SDS011;1717;50.240;8.406;2023-08-24T11:18:22;3.93;;;3.50;;
3407;SDS011;1717;50.240;8.406;2023-08-24T11:20:52;4.20;;;3.10;;
3407;SDS011;1717;50.240;8.406;2023-08-24T11:23:20;4.07;;;3.60;;
3407;SDS011;1717;50.240;8.406;2023-08-24T11:25:48;3.30;;;3.00;;
3407;SDS011;1717;50.240;8.406;2023-08-24T11:28:20;3.60;;;3.27;;
3407;SDS011;1717;50.240;8.406;2023-08-24T11:30:47;5.20;;;3.67;;
3407;SDS011;1717;50.240;8.406;2023-08-24T11:33:15;4.00;;;3.00;;
3407;SDS011;1717;50.240;8.406;2023-08-24T11:35:43;5.63;;;4.17;;
3407;SDS011;1717;50.240;8.406;2023-08-24T11:38:12;4.70;;;3.43;;
3407;SDS011;1717;50.240;8.406;2023-08-24T11:40:39;4.50;;;3.30;;
3407;SDS011;1717;50.240;8.406;2023-08-24T11:43:06;4.70;;;4.03;;
3407;SDS011;1717;50.240;8.406;2023-08-24T11:45:33;3.50;;;3.20;;
3407;SDS011;1717;50.240;8.406;2023-08-24T11:48:04;3.77;;;3.30;;
3407;SDS011;1717;50.240;8.406;2023-08-24T11:50:31;5.10;;;3.53;;
3407;SDS011;1717;50.240;8.406;2023-08-24T11:52:59;4.60;;;3.17;;
3407;SDS011;1717;50.240;8.406;2023-08-24T11:55:29;4.00;;;3.30;;
3407;SDS011;1717;50.240;8.406;2023-08-24T11:57:55;4.60;;;3.83;;
3407;SDS011;1717;50.240;8.406;2023-08-24T12:00:22;3.63;;;3.33;;
3407;SDS011;1717;50.240;8.406;2023-08-24T12:02:50;3.97;;;3.57;;
3407;SDS011;1717;50.240;8.406;2023-08-24T12:05:21;4.50;;;4.00;;
3407;SDS011;1717;50.240;8.406;2023-08-24T12:07:49;4.77;;;3.73;;
3407;SDS011;1717;50.240;8.406;2023-08-24T12:10:18;4.40;;;4.00;;
3407;SDS011;1717;50.240;8.406;2023-08-24T12:12:47;5.23;;;4.63;;
3407;SDS011;1717;50.240;8.406;2023-08-24T12:15:17;5.40;;;3.97;;
3407;SDS011;1717;50.240;8.406;2023-08-24T12:17:45;6.23;;;4.63;;
3407;SDS011;1717;50.240;8.406;2023-08-24T12:20:17;5.83;;;4.50;;
3407;SDS011;1717;50.240;8.406;2023-08-24T12:22:52;5.47;;;4.07;;
3407;SDS011;1717;50.240;8.406;2023-08-24T12:25:23;4.57;;;4.10;;
3407;SDS011;1717;50.240;8.406;2023-08-24T12:27:52;7.13;;;4.70;;
3407;SDS011;1717;50.240;8.406;2023-08-24T12:30:42;5.90;;;4.23;;
3407;SDS011;1717;50.240;8.406;2023-08-24T12:33:20;5.73;;;4.47;;
3407;SDS011;1717;50.240;8.406;2023-08-24T12:35:47;5.83;;;4.70;;
3407;SDS011;1717;50.240;8.406;2023-08-24T12:38:14;7.00;;;4.83;;
3407;SDS011;1717;50.240;8.406;2023-08-24T12:40:41;6.60;;;5.10;;
3407;SDS011;1717;50.240;8.406;2023-08-24T12:43:09;4.87;;;4.27;;
3407;SDS011;1717;50.240;8.406;2023-08-24T12:45:36;5.37;;;3.80;;
3407;SDS011;1717;50.240;8.406;2023-08-24T12:48:03;6.00;;;4.50;;
3407;SDS011;1717;50.240;8.406;2023-08-24T12:50:32;6.70;;;3.83;;
3407;SDS011;1717;50.240;8.406;2023-08-24T12:52:59;6.37;;;5.37;;
3407;SDS011;1717;50.240;8.406;2023-08-24T12:55:26;5.80;;;4.50;;
3407;SDS011;1717;50.240;8.406;2023-08-24T12:57:52;6.10;;;4.53;;
3407;SDS011;1717;50.240;8.406;2023-08-24T13:00:21;5.13;;;4.53;;
3407;SDS011;1717;50.240;8.406;2023-08-24T13:02:48;4.63;;;4.23;;
3407;SDS011;1717;50.240;8.406;2023-08-24T13:05:15;6.00;;;4.40;;
3407;SDS011;1717;50.240;8.406;2023-08-24T13:07:41;5.97;;;4.27;;
3407;SDS011;1717;50.240;8.406;2023-08-24T13:10:09;7.33;;;4.83;;
3407;SDS011;1717;50.240;8.406;2023-08-24T13:12:36;8.80;;;4.07;;
3407;SDS011;1717;50.240;8.406;2023-08-24T13:15:03;6.00;;;4.70;;
3407;SDS011;1717;50.240;8.406;2023-08-24T13:17:32;6.80;;;4.00;;
3407;SDS011;1717;50.240;8.406;2023-08-24T13:19:59;6.70;;;4.20;;
3407;SDS011;1717;50.240;8.406;2023-08-24T13:22:26;5.87;;;4.50;;
3407;SDS011;1717;50.240;8.406;2023-08-24T13:24:53;4.80;;;4.30;;
3407;SDS011;1717;50.240;8.406;2023-08-24T13:27:20;4.50;;;4.00;;
3407;SDS011;1717;50.240;8.406;2023-08-24T13:29:47;6.33;;;5.57;;
3407;SDS011;1717;50.240;8.406;2023-08-24T13:32:14;6.80;;;4.83;;
3407;SDS011;1717;50.240;8.406;2023-08-24T13:34:42;6.60;;;4.63;;
3407;SDS011;1717;50.240;8.406;2023-08-24T13:37:09;5.73;;;4.30;;
3407;SDS011;1717;50.240;8.406;2023-08-24T13:39:36;6.43;;;4.70;;
3407;SDS011;1717;50.240;8.406;2023-08-24T13:42:03;4.37;;;3.97;;
3407;SDS011;1717;50.240;8.406;2023-08-24T13:44:30;7.93;;;5.00;;
3407;SDS011;1717;50.240;8.406;2023-08-24T13:46:57;5.93;;;4.77;;
3407;SDS011;1717;50.240;8.406;2023-08-24T13:49:24;4.90;;;3.90;;
3407;SDS011;1717;50.240;8.406;2023-08-24T13:51:52;5.23;;;4.47;;
3407;SDS011;1717;50.240;8.406;2023-08-24T13:54:19;5.17;;;4.67;;
3407;SDS011;1717;50.240;8.406;2023-08-24T13:56:47;6.10;;;5.20;;
3407;SDS011;1717;50.240;8.406;2023-08-24T13:59:15;6.23;;;5.07;;
3407;SDS011;1717;50.240;8.406;2023-08-24T14:01:42;5.50;;;5.00;;
3407;SDS011;1717;50.240;8.406;2023-08-24T14:04:09;6.20;;;5.43;;
3407;SDS011;1717;50.240;8.406;2023-08-24T14:06:36;6.90;;;6.20;;
3407;SDS011;1717;50.240;8.406;2023-08-24T14:09:04;8.30;;;5.83;;
3407;SDS011;1717;50.240;8.406;2023-08-24T14:11:32;8.20;;;5.57;;
3407;SDS011;1717;50.240;8.406;2023-08-24T14:13:58;7.77;;;5.53;;
3407;SDS011;1717;50.240;8.406;2023-08-24T14:16:26;7.63;;;4.80;;
3407;SDS011;1717;50.240;8.406;2023-08-24T14:18:53;7.87;;;5.67;;
3407;SDS011;1717;50.240;8.406;2023-08-24T14:21:19;5.93;;;5.27;;
3407;SDS011;1717;50.240;8.406;2023-08-24T14:23:48;6.13;;;5.53;;
3407;SDS011;1717;50.240;8.406;2023-08-24T14:26:16;5.40;;;4.90;;
3407;SDS011;1717;50.240;8.406;2023-08-24T14:28:47;6.23;;;5.10;;
3407;SDS011;1717;50.240;8.406;2023-08-24T14:31:14;6.63;;;5.77;;
3407;SDS011;1717;50.240;8.406;2023-08-24T14:33:41;10.03;;;5.80;;
3407;SDS011;1717;50.240;8.406;2023-08-24T14:36:09;5.73;;;5.23;;
3407;SDS011;1717;50.240;8.406;2023-08-24T14:38:37;5.47;;;4.87;;
3407;SDS011;1717;50.240;8.406;2023-08-24T14:41:05;6.13;;;5.57;;
3407;SDS011;1717;50.240;8.406;2023-08-24T14:43:33;7.50;;;6.10;;
3407;SDS011;1717;50.240;8.406;2023-08-24T14:46:00;8.87;;;6.90;;
3407;SDS011;1717;50.240;8.406;2023-08-24T14:48:27;10.10;;;6.13;;
3407;SDS011;1717;50.240;8.406;2023-08-24T14:50:54;6.73;;;5.87;;
3407;SDS011;1717;50.240;8.406;2023-08-24T14:53:21;8.30;;;5.40;;
3407;SDS011;1717;50.240;8.406;2023-08-24T14:55:48;6.90;;;5.57;;
3407;SDS011;1717;50.240;8.406;2023-08-24T14:58:15;5.60;;;5.10;;
3407;SDS011;1717;50.240;8.406;2023-08-24T15:00:43;5.43;;;4.93;;
3407;SDS011;1717;50.240;8.406;2023-08-24T15:03:11;7.13;;;6.03;;
3407;SDS011;1717;50.240;8.406;2023-08-24T15:05:38;6.27;;;5.60;;
3407;SDS011;1717;50.240;8.406;2023-08-24T15:08:08;6.20;;;5.70;;
3407;SDS011;1717;50.240;8.406;2023-08-24T15:10:37;5.70;;;5.17;;
3407;SDS011;1717;50.240;8.406;2023-08-24T15:13:04;7.50;;;6.40;;
3407;SDS011;1717;50.240;8.406;2023-08-24T15:15:34;5.17;;;4.67;;
3407;SDS011;1717;50.240;8.406;2023-08-24T15:18:02;5.20;;;4.80;;
3407;SDS011;1717;50.240;8.406;2023-08-24T15:20:29;9.80;;;5.73;;